Data for 08/16/2013

Time Sea-Level Adjusted Pressure Absolute Pressure Temperature Relative Humidity Dew Point   
(mb) (inHg) (mb) (inHg) (C) (F) (%) (C) (F)
00:05 1019 30.09 848 25.04 23.3 74 21 0.2 32.4
00:10 1019 30.09 848 25.04 23.2 73.8 21 0.2 32.3
00:15 1019 30.09 848 25.04 23.2 73.7 22 0.3 32.5
00:20 1019 30.09 848 25.04 23 73.3 22 0.4 32.7
00:25 1019 30.09 848 25.04 23 73.4 22 0.4 32.7
00:30 1019 30.09 848 25.04 23 73.4 22 0.4 32.7
00:35 1019 30.09 848 25.04 23 73.4 22 0.5 32.8
00:40 1019 30.09 848 25.04 23 73.3 22 0.5 32.9
00:45 1019 30.09 848 25.04 23 73.3 23 0.7 33.2
00:50 1019 30.09 848 25.04 22.9 73.2 23 0.8 33.4
00:55 1019 30.09 848 25.04 22.8 73 23 0.8 33.4
01:00 1019 30.09 848 25.04 22.8 73 23 0.7 33.3
01:05 1019 30.09 848 25.04 22.6 72.7 23 0.8 33.4
01:10 1019 30.09 849 25.07 22.6 72.7 23 0.9 33.6
01:15 1019 30.09 848 25.04 22.6 72.8 24 1 33.7
01:20 1019 30.09 848 25.04 22.8 73 23 1 33.9
01:25 1019 30.09 848 25.04 22.7 72.9 24 1.3 34.3
01:30 1019 30.09 848 25.04 22.6 72.6 24 1.3 34.3
01:35 1019 30.09 848 25.04 22.5 72.6 24 1.1 34
01:40 1019 30.09 848 25.04 22.4 72.4 24 1.3 34.3
01:45 1019 30.09 848 25.04 22.4 72.4 24 1.2 34.2
01:50 1019 30.09 848 25.04 22.2 71.9 25 1.4 34.6
01:55 1019 30.09 848 25.04 22 71.5 25 1.4 34.6
02:00 1019 30.09 848 25.04 21.7 71 26 1.4 34.6
02:05 1019 30.09 848 25.04 21.3 70.4 26 1.2 34.2
02:10 1019 30.09 848 25.04 21.1 70.1 26 1.3 34.3
02:15 1019 30.09 848 25.04 21.1 70 26 0.8 33.5
02:20 1019 30.09 848 25.04 21.2 70.1 26 1.1 33.9
02:25 1019 30.09 849 25.07 21.2 70.1 26 1 33.9
02:30 1019 30.09 849 25.07 21 69.9 26 0.9 33.6
02:35 1019 30.09 849 25.07 20.9 69.7 25 0.6 33.1
02:40 1019 30.09 849 25.07 20.9 69.5 26 0.6 33.1
02:45 1019 30.09 849 25.07 20.8 69.4 25 0.5 32.8
02:50 1019 30.09 849 25.07 20.6 69.2 26 0.5 32.8
02:55 1019 30.09 849 25.07 20.5 68.9 26 0.3 32.6
03:00 1019 30.09 849 25.07 20.4 68.7 26 0.2 32.3
03:05 1019 30.09 849 25.07 20.3 68.5 26 0.1 32.1
03:10 1019 30.09 849 25.07 20 67.9 26 0.2 32.4
03:15 1019 30.09 849 25.07 19.5 67 25 -0.9 30.4
03:20 1019 30.09 849 25.07 19.3 66.7 27 -0.2 31.7
03:25 1019 30.09 849 25.07 19.1 66.4 25 -1.1 30
03:30 1020 30.12 849 25.07 19.1 66.4 25 -1.2 29.9
03:35 1020 30.12 849 25.07 19.2 66.5 25 -1.2 29.8
03:40 1020 30.12 849 25.07 19.2 66.5 24 -1.7 28.9
03:45 1020 30.12 849 25.07 19.1 66.4 24 -1.8 28.7
03:50 1020 30.12 849 25.07 18.8 65.8 25 -1.4 29.5
03:55 1020 30.12 849 25.07 18.1 64.6 26 -1.5 29.4
04:00 1020 30.12 849 25.07 17.6 63.8 26 -2.1 28.3
04:05 1020 30.12 849 25.07 17.6 63.6 25 -2.5 27.6
04:10 1020 30.12 849 25.07 17.8 64.1 24 -2.8 27
04:15 1020 30.12 849 25.07 18.2 64.7 25 -2.3 27.9
04:20 1020 30.12 849 25.07 17.7 63.8 25 -2.4 27.7
04:25 1020 30.12 849 25.07 17.7 63.9 25 -2.4 27.7
04:30 1020 30.12 849 25.07 17.8 64.1 26 -2 28.4
04:35 1020 30.12 849 25.07 17.7 63.9 25 -2.4 27.7
04:40 1020 30.12 849 25.07 17.6 63.7 26 -2.1 28.1
04:45 1020 30.12 849 25.07 17.5 63.5 26 -2 28.3
04:50 1020 30.12 849 25.07 17.3 63.2 26 -2.5 27.5
04:55 1020 30.12 849 25.07 17.3 63.2 26 -2.2 28
05:00 1020 30.12 849 25.07 17.2 62.9 27 -1.7 28.9
05:05 1020 30.12 849 25.07 16.7 62.1 27 -2.3 27.9
05:10 1020 30.12 849 25.07 16.9 62.5 27 -2.3 27.9
05:15 1020 30.12 849 25.07 16.9 62.4 26 -2.4 27.7
05:20 1020 30.12 849 25.07 17 62.6 26 -2.3 27.9
05:25 1020 30.12 849 25.07 16.9 62.4 27 -2 28.4
05:30 1020 30.12 849 25.07 16.7 62 27 -2.1 28.3
05:35 1020 30.12 849 25.07 16.8 62.3 27 -2.4 27.6
05:40 1020 30.12 849 25.07 17 62.5 27 -2.2 28
05:45 1020 30.12 849 25.07 16.9 62.4 27 -2.3 27.9
05:50 1020 30.12 849 25.07 17 62.6 26 -2.6 27.3
05:55 1020 30.12 849 25.07 17.1 62.7 26 -2.5 27.5
06:00 1020 30.12 849 25.07 17.2 63 28 -1.3 29.6
06:05 1020 30.12 849 25.07 17.4 63.2 26 -2.1 28.2
06:10 1020 30.12 849 25.07 17.2 63 26 -2.4 27.6
06:15 1020 30.12 849 25.07 17.5 63.4 25 -2.4 27.6
06:20 1020 30.12 849 25.07 17.7 63.9 30 -0.1 31.7
06:25 1020 30.12 849 25.07 17.7 63.9 26 -2 28.5
06:30 1020 30.12 849 25.07 17.5 63.5 26 -2 28.5
06:35 1020 30.12 849 25.07 17.3 63.2 29 -0.8 30.6
06:40 1020 30.12 849 25.07 17.2 63 27 -1.9 28.7
06:45 1020 30.12 849 25.07 17.1 62.7 27 -1.9 28.5
06:50 1020 30.12 849 25.07 17.2 62.9 27 -1.8 28.8
06:55 1020 30.12 849 25.07 17.3 63.2 27 -1.8 28.8
07:00 1020 30.12 849 25.07 17.5 63.5 26 -2.1 28.2
07:05 1020 30.12 850 25.1 18 64.3 27 -1.4 29.6
07:10 1020 30.12 850 25.1 18.1 64.7 25 -1.9 28.5
07:15 1020 30.12 850 25.1 18 64.4 29 -0 32
07:20 1021 30.15 850 25.1 18.1 64.5 29 -0.3 31.5
07:25 1020 30.12 850 25.1 18.5 65.2 25 -2 28.4
07:30 1020 30.12 850 25.1 18.7 65.6 29 0.5 32.9
07:35 1020 30.12 850 25.1 18.3 65 28 -0.1 31.8
07:40 1020 30.12 850 25.1 18.3 64.9 27 -0.9 30.3
07:45 1020 30.12 850 25.1 18.5 65.3 31 1.1 34
07:50 1020 30.12 850 25.1 19 66.2 30 1.4 34.5
07:55 1020 30.12 850 25.1 19.2 66.5 29 1 33.8
08:00 1020 30.12 850 25.1 19.5 67.1 27 0.2 32.3
08:05 1020 30.12 850 25.1 19.7 67.4 28 0.6 33.1
08:10 1020 30.12 850 25.1 19.5 67.1 30 1.8 35.2
08:15 1020 30.12 850 25.1 19.7 67.4 31 2.2 35.9
08:20 1020 30.12 850 25.1 19.7 67.4 31 2.3 36.2
08:25 1020 30.12 850 25.1 19.9 67.8 28 1.1 34
08:30 1020 30.12 850 25.1 20 68 27 0.3 32.6
08:35 1020 30.12 850 25.1 20.6 69.1 26 0.6 33
08:40 1020 30.12 850 25.1 21.1 70 29 2.4 36.3
08:45 1020 30.12 850 25.1 21.6 71 29 2.8 37.1
08:50 1020 30.12 849 25.07 22.1 71.7 25 1.4 34.4
08:55 1020 30.12 850 25.1 22.5 72.5 22 -0.1 31.7
09:00 1020 30.12 850 25.1 23.4 74.1 21 -0 31.9
09:05 1020 30.12 849 25.07 23.8 74.8 20 -0.1 31.9
09:10 1020 30.12 849 25.07 24.1 75.3 20 0.2 32.4
09:15 1020 30.12 849 25.07 23.9 75 23 1.6 34.8
09:20 1020 30.12 849 25.07 24.1 75.3 19 -0.6 31
09:25 1020 30.12 849 25.07 24.7 76.5 19 0.1 32.1
09:30 1020 30.12 849 25.07 25.1 77.2 20 0.6 33
09:35 1020 30.12 849 25.07 25.7 78.3 18 -0.1 31.9
09:40 1020 30.12 849 25.07 26.3 79.4 17 -0.5 31.1
09:45 1020 30.12 849 25.07 27.1 80.9 18 0.8 33.5
09:50 1020 30.12 849 25.07 27 80.6 17 0.4 32.7
09:55 1020 30.12 849 25.07 27 80.6 17 0.1 32.2
10:00 1020 30.12 849 25.07 27.4 81.4 16 0 32
10:05 1020 30.12 849 25.07 27.3 81.1 18 1.3 34.4
10:10 1020 30.12 849 25.07 27.2 81 18 1.3 34.3
10:15 1020 30.12 849 25.07 27.5 81.4 19 2 35.6
10:20 1020 30.12 849 25.07 27.5 81.5 19 2.2 36
10:25 1020 30.12 849 25.07 27.6 81.8 19 2 35.6
10:30 1020 30.12 849 25.07 28.2 82.7 18 2 35.6
10:35 1020 30.12 849 25.07 28.4 83.1 19 2.8 37
10:40 1020 30.12 849 25.07 27.8 82 20 2.8 37
10:45 1020 30.12 849 25.07 28.1 82.6 18 1.7 35.1
10:50 1020 30.12 849 25.07 28.5 83.3 17 1.6 34.9
10:55 1020 30.12 849 25.07 28.6 83.5 18 2.2 35.9
11:00 1020 30.12 849 25.07 28.2 82.7 18 1.9 35.5
11:05 1020 30.12 849 25.07 27.5 81.5 19 2.1 35.9
11:10 1020 30.12 849 25.07 27.4 81.4 19 1.8 35.3
11:15 1020 30.12 849 25.07 28.1 82.5 19 2.2 36
11:20 1019 30.09 849 25.07 28.5 83.2 17 1.6 34.9
11:25 1019 30.09 849 25.07 29 84.3 17 1.7 35.1
11:30 1019 30.09 849 25.07 29.1 84.3 17 2.3 36.1
11:35 1019 30.09 849 25.07 28.5 83.4 18 2.5 36.6
11:40 1019 30.09 849 25.07 28.9 84 18 2.1 35.8
11:45 1019 30.09 849 25.07 29.8 85.6 16 1.9 35.5
11:50 1019 30.09 848 25.04 30 85.9 16 2 35.6
11:55 1019 30.09 848 25.04 29.4 84.8 17 1.8 35.3
12:00 1019 30.09 848 25.04 29.6 85.3 17 2.1 35.7
12:05 1019 30.09 848 25.04 29.5 85.1 15 0.3 32.6
12:10 1019 30.09 848 25.04 29.8 85.7 16 1.5 34.7
12:15 1019 30.09 848 25.04 30.3 86.5 15 0.7 33.2
12:20 1019 30.09 848 25.04 30.2 86.3 13 -0.4 31.3
12:25 1019 30.09 848 25.04 30.2 86.4 14 -0.2 31.6
12:30 1019 30.09 848 25.04 30.5 86.8 14 0.2 32.4
12:35 1019 30.09 848 25.04 30.3 86.6 14 0.5 32.9
12:40 1019 30.09 848 25.04 30.4 86.7 18 4.1 39.3
12:45 1019 30.09 848 25.04 30.3 86.6 15 1.4 34.6
12:50 1019 30.09 848 25.04 30.1 86.2 14 0.3 32.6
12:55 1019 30.09 848 25.04 29.9 85.8 15 0.7 33.2
13:00 1019 30.09 848 25.04 30.8 87.4 14 0.2 32.4
13:05 1019 30.09 848 25.04 31.6 88.9 13 0.5 32.9
13:10 1019 30.09 848 25.04 31.8 89.3 15 2.6 36.7
13:15 1018 30.06 848 25.04 30.7 87.3 16 2.5 36.6
13:20 1019 30.09 848 25.04 31.1 87.9 14 0.8 33.5
13:25 1018 30.06 848 25.04 31.2 88.1 13 0.3 32.6
13:30 1018 30.06 848 25.04 31.1 88 14 0.7 33.2
13:35 1018 30.06 848 25.04 31.9 89.4 15 2.6 36.7
13:40 1018 30.06 848 25.04 32.2 89.9 14 1.9 35.4
13:45 1018 30.06 848 25.04 32.6 90.7 14 1.6 34.8
13:50 1018 30.06 848 25.04 32.3 90.2 13 1.3 34.3
13:55 1018 30.06 848 25.04 32.6 90.7 13 1.3 34.3
14:00 1018 30.06 847 25.01 33.4 92.2 11 -0.1 31.8
14:05 1018 30.06 847 25.01 34.1 93.4 11 -0.1 31.8
14:10 1018 30.06 847 25.01 34.9 94.9 11 0.1 32.1
14:15 1018 30.06 847 25.01 35.2 95.4 11 0.4 32.8
14:20 1018 30.06 847 25.01 34.7 94.5 11 0.3 32.5
14:25 1018 30.06 847 25.01 34 93.1 11 -0.2 31.7
14:30 1018 30.06 847 25.01 34.4 93.9 10 -0.7 30.7
14:35 1018 30.06 847 25.01 35 94.9 12 1.2 34.2
14:40 1018 30.06 847 25.01 35.5 95.9 9 -1.2 29.9
14:45 1018 30.06 847 25.01 35.2 95.3 10 -1.2 29.8
14:50 1018 30.06 847 25.01 34.3 93.8 11 -0.5 31
14:55 1018 30.06 847 25.01 34.9 94.8 10 -0.8 30.6
15:00 1018 30.06 847 25.01 34.9 94.8 9 -2.3 27.8
15:05 1018 30.06 847 25.01 35.1 95.3 9 -1.8 28.7
15:10 1018 30.06 847 25.01 35 95 8 -3.8 25.2
15:15 1018 30.06 847 25.01 34.8 94.6 8 -3.9 24.9
15:20 1018 30.06 847 25.01 34.7 94.4 8 -3.8 25.2
15:25 1018 30.06 847 25.01 34.6 94.3 10 -0.8 30.6
15:30 1018 30.06 847 25.01 34.9 94.7 8 -4.2 24.4
15:35 1018 30.06 847 25.01 34.8 94.6 8 -3.8 25.1
15:40 1018 30.06 847 25.01 34.5 94.1 8 -4.4 24.1
15:45 1018 30.06 847 25.01 34.7 94.5 7 -5.4 22.2
15:50 1018 30.06 847 25.01 34.2 93.6 7 -5.5 22.1
15:55 1018 30.06 847 25.01 33.7 92.6 7 -6 21.3
16:00 1018 30.06 847 25.01 33.7 92.6 8 -5.1 22.9
16:05 1018 30.06 847 25.01 33.7 92.6 8 -5.2 22.7
16:10 1018 30.06 847 25.01 33.8 92.8 7 -6.2 20.9
16:15 1017 30.03 847 25.01 33.9 93 9 -3.4 25.8
16:20 1017 30.03 847 25.01 34.5 94.1 7 -5 23
16:25 1018 30.06 847 25.01 33.6 92.5 8 -5.2 22.7
16:30 1018 30.06 847 25.01 33.4 92.1 7 -7.1 19.2
16:35 1017 30.03 847 25.01 33.5 92.2 10 -2.3 27.8
16:40 1017 30.03 847 25.01 33.7 92.6 9 -2.9 26.7
16:45 1017 30.03 847 25.01 33.5 92.2 7 -5.8 21.6
16:50 1017 30.03 847 25.01 33.2 91.7 7 -6.7 19.9
16:55 1017 30.03 847 25.01 33.1 91.6 8 -5.9 21.4
17:00 1017 30.03 847 25.01 33.1 91.6 8 -5.3 22.5
17:05 1017 30.03 847 25.01 33.2 91.7 8 -5.7 21.8
17:10 1017 30.03 847 25.01 33 91.5 7 -6.4 20.5
17:15 1017 30.03 847 25.01 33.1 91.6 8 -5.4 22.2
17:20 1017 30.03 847 25.01 33.3 92 7 -6.2 20.8
17:25 1017 30.03 847 25.01 33.3 92 8 -5.4 22.3
17:30 1017 30.03 847 25.01 33.1 91.6 13 1.7 35.1
17:35 1017 30.03 847 25.01 33.2 91.7 9 -3.3 26
17:40 1017 30.03 847 25.01 33.7 92.7 10 -2.3 27.8
17:45 1017 30.03 847 25.01 34 93.2 7 -5.6 22
17:50 1017 30.03 847 25.01 33.6 92.4 11 0.1 32.1
17:55 1017 30.03 847 25.01 33.1 91.7 11 -1.4 29.5
18:00 1017 30.03 846 24.98 32.5 90.6 8 -5.9 21.4
18:05 1017 30.03 846 24.98 32.4 90.4 9 -4.4 24.1
18:10 1017 30.03 846 24.98 32.6 90.6 10 -3.3 26.1
18:15 1017 30.03 846 24.98 32.4 90.3 10 -3.1 26.4
18:20 1017 30.03 846 24.98 32 89.6 9 -3.9 25
18:25 1017 30.03 846 24.98 31.8 89.3 10 -2.6 27.3
18:30 1017 30.03 846 24.98 31.8 89.2 10 -2.6 27.3
18:35 1017 30.03 846 24.98 31.7 89.1 12 -1.3 29.6
18:40 1017 30.03 847 25.01 31.3 88.3 12 -0.9 30.3
18:45 1017 30.03 847 25.01 30.9 87.6 13 -0.2 31.7
18:50 1017 30.03 847 25.01 30.5 87 14 0.1 32.2
18:55 1018 30.06 847 25.01 30.2 86.3 14 0 32
19:00 1018 30.06 847 25.01 30 85.9 13 -1.6 29.2
19:05 1018 30.06 847 25.01 30 85.9 13 -1.6 29.2
19:10 1018 30.06 847 25.01 30.1 86.1 12 -1.7 29
19:15 1018 30.06 847 25.01 29.9 85.8 13 -1.4 29.6
19:20 1018 30.06 847 25.01 29.5 85.1 13 -1.7 28.9
19:25 1018 30.06 847 25.01 29.1 84.4 13 -1.8 28.7
19:30 1018 30.06 847 25.01 29 84.2 13 -1.8 28.7
19:35 1018 30.06 847 25.01 28.8 83.9 14 -0.8 30.5
19:40 1018 30.06 847 25.01 28.4 83.2 14 -1.2 29.8
19:45 1018 30.06 847 25.01 28.2 82.8 14 -1.1 30
19:50 1018 30.06 847 25.01 28 82.4 15 -1.1 30
19:55 1018 30.06 847 25.01 27.9 82.3 14 -1.4 29.6
20:00 1018 30.06 847 25.01 27.5 81.4 15 -0.9 30.5
20:05 1018 30.06 848 25.04 26.6 79.9 17 0.2 32.4
20:10 1018 30.06 848 25.04 26 78.7 17 -0.4 31.2
20:15 1018 30.06 848 25.04 26 78.7 17 -0.4 31.2
20:20 1018 30.06 848 25.04 26 78.8 18 0.3 32.5
20:25 1018 30.06 848 25.04 25.9 78.5 20 1.6 34.9
20:30 1019 30.09 848 25.04 24.5 76.1 22 1.9 35.5
20:35 1019 30.09 848 25.04 24 75.3 21 0.9 33.6
20:40 1019 30.09 848 25.04 24.2 75.6 20 -0.1 31.9
20:45 1019 30.09 848 25.04 24.6 76.3 19 -0.7 30.8
20:50 1019 30.09 848 25.04 24.5 76.1 20 0.4 32.8
20:55 1019 30.09 848 25.04 24.2 75.6 20 0.1 32.2
21:00 1019 30.09 848 25.04 23.7 74.6 23 1.8 35.3
21:05 1019 30.09 848 25.04 23.1 73.6 23 1.3 34.3
21:10 1019 30.09 848 25.04 23.4 74.1 20 -0.5 31.2
21:15 1019 30.09 848 25.04 23.5 74.2 22 0.8 33.5
21:20 1019 30.09 848 25.04 23.3 73.9 20 -0.8 30.6
21:25 1019 30.09 848 25.04 23.8 74.8 23 1.9 35.5
21:30 1019 30.09 848 25.04 23.6 74.5 21 0.4 32.7
21:35 1019 30.09 848 25.04 23.2 73.7 22 0.5 33
21:40 1019 30.09 848 25.04 22.9 73.2 21 -0.6 30.9
21:45 1019 30.09 848 25.04 23.3 73.9 19 -1.3 29.6
21:50 1019 30.09 848 25.04 23.6 74.4 23 1.3 34.3
21:55 1019 30.09 848 25.04 22.7 72.9 23 0.6 33.1
22:00 1019 30.09 848 25.04 22.3 72.2 22 -0.1 31.7
22:05 1019 30.09 848 25.04 22.4 72.2 23 0.5 32.9
22:10 1019 30.09 848 25.04 22.2 72 22 -0.1 31.8
22:15 1019 30.09 848 25.04 22.3 72.1 22 -0.5 31
22:20 1019 30.09 848 25.04 22.3 72.1 22 -0.2 31.7
22:25 1019 30.09 849 25.07 21.9 71.4 26 1.7 35
22:30 1019 30.09 849 25.07 20.6 69.1 27 1.1 34
22:35 1019 30.09 848 25.04 21 69.8 27 1.4 34.6
22:40 1019 30.09 848 25.04 21 69.8 25 0.4 32.7
22:45 1019 30.09 848 25.04 21 69.7 23 -0.7 30.8
22:50 1019 30.09 848 25.04 21.6 70.9 20 -2.1 28.3
22:55 1019 30.09 848 25.04 22.8 73 21 -0.4 31.3
23:00 1019 30.09 848 25.04 22 71.5 23 0 32.1
23:05 1019 30.09 848 25.04 21.2 70.2 26 1 33.7
23:10 1019 30.09 848 25.04 20.7 69.3 26 0.6 33
23:15 1019 30.09 848 25.04 19.9 67.8 28 1 33.8
23:20 1019 30.09 848 25.04 19.4 67 28 0.8 33.5
23:25 1019 30.09 849 25.07 19.1 66.4 28 0.3 32.6
23:30 1019 30.09 849 25.07 19.2 66.6 28 0.5 32.9
23:35 1019 30.09 849 25.07 19 66.2 28 0.3 32.6
23:40 1020 30.12 849 25.07 19.1 66.3 28 0.1 32.2
23:45 1020 30.12 849 25.07 19.3 66.7 27 -0.2 31.6
23:50 1020 30.12 849 25.07 19.3 66.7 28 0.7 33.2
23:55 1020 30.12 849 25.07 19.4 67 29 1 33.8
24:00 1020 30.12 849 25.07 19.3 66.7 27 0.1 32.2